createdAt,value
2023-01-05T00:01:37.397Z,97978.38
2023-01-05T00:04:39.465Z,97983.38
2023-01-05T00:07:41.609Z,97989.78
2023-01-05T00:11:01.925Z,97993.31
2023-01-05T00:14:23.720Z,97994.34
2023-01-05T00:17:44.008Z,97999.09
2023-01-05T00:21:03.947Z,98006.97
2023-01-05T00:24:05.885Z,97997.91
2023-01-05T00:27:07.511Z,98005.84
2023-01-05T00:30:11.652Z,97980.78
2023-01-05T00:33:14.324Z,97991.50
2023-01-05T00:36:15.897Z,97987.25
2023-01-05T00:39:17.427Z,98005.19
2023-01-05T00:42:19.881Z,98010.44
2023-01-05T00:45:22.820Z,98018.50
2023-01-05T00:48:24.504Z,98014.88
2023-01-05T00:51:26.031Z,98013.00
2023-01-05T00:54:28.032Z,98021.78
2023-01-05T00:57:29.564Z,98003.16
2023-01-05T01:00:32.670Z,98020.22
2023-01-05T01:03:34.345Z,98024.41
2023-01-05T01:06:36.026Z,98031.59
2023-01-05T01:09:37.735Z,98032.84
2023-01-05T01:12:39.493Z,98047.22
2023-01-05T01:15:42.491Z,98041.97
2023-01-05T01:18:45.635Z,98045.59
2023-01-05T01:21:48.584Z,98041.22
2023-01-05T01:24:50.281Z,98059.91
2023-01-05T01:27:51.986Z,98045.66
2023-01-05T01:30:55.162Z,98065.22
2023-01-05T01:33:56.782Z,98062.50
2023-01-05T01:36:59.137Z,98071.41
2023-01-05T01:40:08.803Z,98070.63
2023-01-05T01:43:14.410Z,98070.91
2023-01-05T01:46:19.623Z,98070.00
2023-01-05T01:49:21.240Z,98077.91
2023-01-05T01:52:24.012Z,98082.47
2023-01-05T01:55:26.919Z,98080.63
2023-01-05T01:58:29.574Z,98079.72
2023-01-05T02:01:33.004Z,98079.53
2023-01-05T02:04:36.806Z,98084.06
2023-01-05T02:07:43.645Z,98084.00
2023-01-05T02:10:55.411Z,98094.34
2023-01-05T02:14:03.600Z,98101.34
2023-01-05T02:17:15.105Z,98091.69
2023-01-05T02:20:28.755Z,98090.72
2023-01-05T02:23:51.056Z,98088.75
2023-01-05T02:27:11.426Z,98090.41
2023-01-05T02:30:32.397Z,98093.16
2023-01-05T02:33:47.007Z,98090.41
2023-01-05T02:36:53.362Z,98095.66
2023-01-05T02:39:58.094Z,98087.66
2023-01-05T02:43:01.044Z,98090.34
2023-01-05T02:46:02.749Z,98082.34
2023-01-05T02:49:06.439Z,98087.75
2023-01-05T02:52:09.539Z,98075.38
2023-01-05T02:55:13.545Z,98078.06
2023-01-05T02:58:17.608Z,98068.13
2023-01-05T03:01:20.661Z,98078.75
2023-01-05T03:04:28.285Z,98091.06
2023-01-05T03:07:32.626Z,98095.66
2023-01-05T03:10:55.460Z,98095.72
2023-01-05T03:13:59.526Z,98096.59
2023-01-05T03:17:01.975Z,98092.22
2023-01-05T03:20:08.690Z,98099.47
2023-01-05T03:23:31.167Z,98098.53
2023-01-05T03:26:52.156Z,98093.22
2023-01-05T03:30:13.035Z,98098.69
2023-01-05T03:33:35.753Z,98116.63
2023-01-05T03:36:41.523Z,98106.06
2023-01-05T03:43:07.619Z,98126.63
2023-01-05T03:46:10.912Z,98121.56
2023-01-05T03:49:13.829Z,98121.97
2023-01-05T03:52:15.451Z,98115.09
2023-01-05T03:55:17.686Z,98122.41
2023-01-05T03:58:20.776Z,98114.91
2023-01-05T04:01:24.395Z,98120.44
2023-01-05T04:04:27.481Z,98113.47
2023-01-05T04:07:29.627Z,98123.38
2023-01-05T04:10:31.926Z,98144.66
2023-01-05T04:13:36.528Z,98137.56
2023-01-05T04:16:38.159Z,98127.00
2023-01-05T04:19:48.857Z,98134.13
2023-01-05T04:22:50.508Z,98139.44
2023-01-05T04:25:54.605Z,98142.03
2023-01-05T04:28:59.632Z,98150.84
2023-01-05T04:32:03.027Z,98151.69
2023-01-05T04:35:11.021Z,98146.47
2023-01-05T04:38:14.743Z,98151.94
2023-01-05T04:41:16.580Z,98163.44
2023-01-05T04:44:23.767Z,98151.94
2023-01-05T04:47:25.584Z,98153.66
2023-01-05T04:50:28.970Z,98162.50
2023-01-05T04:53:33.614Z,98155.38
2023-01-05T04:56:35.497Z,98169.47
2023-01-05T04:59:40.781Z,98172.97
2023-01-05T05:02:43.167Z,98178.38
2023-01-05T05:05:48.492Z,98173.06
2023-01-05T05:08:51.048Z,98184.63
2023-01-05T05:11:52.929Z,98182.88
2023-01-05T05:14:58.586Z,98186.41
2023-01-05T05:18:05.562Z,98191.66
2023-01-05T05:21:10.863Z,98178.25
2023-01-05T05:24:14.198Z,98184.38
2023-01-05T05:27:18.975Z,98188.75
2023-01-05T05:30:22.368Z,98196.66
2023-01-05T05:33:24.996Z,98195.78
2023-01-05T05:36:26.751Z,98216.03
2023-01-05T05:39:28.324Z,98199.31
2023-01-05T05:42:30.191Z,98199.31
2023-01-05T05:45:33.099Z,98197.72
2023-01-05T05:48:34.777Z,98201.34
2023-01-05T05:51:36.651Z,98199.75
2023-01-05T05:54:38.427Z,98205.06
2023-01-05T05:57:39.927Z,98210.47
2023-01-05T06:00:42.892Z,98210.59
2023-01-05T06:03:44.437Z,98213.38
2023-01-05T06:06:46.104Z,98214.38
2023-01-05T06:09:47.642Z,98217.97
2023-01-05T06:12:49.296Z,98225.19
2023-01-05T06:15:52.258Z,98227.09
2023-01-05T06:18:54.378Z,98222.72
2023-01-05T06:21:56.037Z,98241.38
2023-01-05T06:24:57.577Z,98235.91
2023-01-05T06:27:59.687Z,98235.91
2023-01-05T06:31:02.710Z,98243.03
2023-01-05T06:34:04.395Z,98246.56
2023-01-05T06:37:06.500Z,98257.09
2023-01-05T06:40:10.067Z,98278.25
2023-01-05T06:43:11.759Z,98264.19
2023-01-05T06:46:14.781Z,98273.03
2023-01-05T06:49:16.690Z,98272.19
2023-01-05T06:52:18.356Z,98274.84
2023-01-05T06:55:21.905Z,98285.47
2023-01-05T06:58:23.461Z,98285.53
2023-01-05T07:01:26.470Z,98297.03
2023-01-05T07:04:28.175Z,98291.84
2023-01-05T07:07:29.825Z,98289.13
2023-01-05T07:10:31.536Z,98293.44
2023-01-05T07:13:33.104Z,98289.91
2023-01-05T07:16:36.222Z,98301.38
2023-01-05T07:19:37.983Z,98304.06
2023-01-05T07:22:39.717Z,98310.31
2023-01-05T07:25:44.374Z,98315.69
2023-01-05T07:28:46.179Z,98315.69
2023-01-05T07:31:52.339Z,98316.63
2023-01-05T07:34:55.894Z,98321.13
2023-01-05T07:37:57.705Z,98319.53
2023-01-05T07:40:59.756Z,98326.59
2023-01-05T07:44:01.542Z,98331.03
2023-01-05T07:47:04.635Z,98332.75
2023-01-05T07:50:06.876Z,98338.94
2023-01-05T07:53:08.561Z,98346.09
2023-01-05T07:56:10.893Z,98339.00
2023-01-05T07:59:12.545Z,98351.41
2023-01-05T08:02:15.804Z,98347.94
2023-01-05T08:05:17.597Z,98351.44
2023-01-05T08:08:24.153Z,98357.69
2023-01-05T08:11:26.176Z,98362.06
2023-01-05T08:14:27.745Z,98362.03
2023-01-05T08:17:30.779Z,98366.50
2023-01-05T08:20:32.583Z,98361.19
2023-01-05T08:23:34.444Z,98369.06
2023-01-05T08:40:51.593Z,98392.06
2023-01-05T08:43:54.973Z,98396.38
2023-01-05T08:46:56.758Z,98397.97
2023-01-05T08:49:58.747Z,98395.28
2023-01-05T08:53:00.369Z,98403.28
2023-01-05T08:56:03.794Z,98404.22
2023-01-05T08:59:05.655Z,98412.81
2023-01-05T09:02:10.662Z,98414.69
2023-01-05T09:05:12.571Z,98425.31
2023-01-05T09:08:14.331Z,98425.38
2023-01-05T09:11:21.216Z,98433.34
2023-01-05T09:14:23.122Z,98443.13
2023-01-05T09:17:27.228Z,98435.16
2023-01-05T09:20:32.009Z,98455.56
2023-01-05T09:23:37.409Z,98464.34
2023-01-05T09:26:40.648Z,98468.63
2023-01-05T09:29:42.782Z,98471.16
2023-01-05T09:32:44.463Z,98472.13
2023-01-05T09:35:53.537Z,98480.84
2023-01-05T09:38:58.981Z,98480.03
2023-01-05T09:42:04.562Z,98476.34
2023-01-05T09:45:07.434Z,98487.88
2023-01-05T09:48:14.554Z,98494.91
2023-01-05T09:51:16.367Z,98497.44
2023-01-05T09:54:19.409Z,98522.97
2023-01-05T09:57:27.102Z,98514.13
2023-01-05T10:00:30.359Z,98516.78
2023-01-05T10:04:02.913Z,98529.25
2023-01-05T10:07:01.470Z,98536.56
2023-01-05T10:10:08.925Z,98539.31
2023-01-05T10:13:21.847Z,98554.31
2023-01-05T10:16:29.249Z,98549.00
2023-01-05T10:19:31.504Z,98556.03
2023-01-05T10:22:43.992Z,98542.88
2023-01-05T10:25:53.022Z,98544.53
2023-01-05T10:29:02.373Z,98541.88
2023-01-05T10:32:12.693Z,98557.69
2023-01-05T10:38:57.553Z,98552.25
2023-01-05T10:42:03.734Z,98553.91
2023-01-05T10:45:10.361Z,98559.22
2023-01-05T10:48:17.320Z,98567.97
2023-01-05T10:51:19.813Z,98560.06
2023-01-05T10:54:29.796Z,98571.56
2023-01-05T10:57:36.783Z,98568.19
2023-01-05T11:00:42.809Z,98570.16
2023-01-05T11:04:25.076Z,98577.31
2023-01-05T11:07:09.543Z,98586.38
2023-01-05T11:10:20.903Z,98582.69
2023-01-05T11:13:32.339Z,98598.56
2023-01-05T11:16:38.345Z,98586.84
2023-01-05T11:19:45.483Z,98590.19
2023-01-05T11:22:48.502Z,98591.03
2023-01-05T11:25:50.231Z,98595.31
2023-01-05T11:29:16.389Z,98588.06
2023-01-05T11:32:19.614Z,98587.97
2023-01-05T11:35:28.501Z,98587.59
2023-01-05T11:38:31.678Z,98586.59
2023-01-05T11:41:34.921Z,98587.44
2023-01-05T11:44:37.701Z,98582.88
2023-01-05T11:47:45.786Z,98585.53
2023-01-05T11:50:50.432Z,98595.16
2023-01-05T11:53:52.393Z,98600.78
2023-01-05T11:57:12.770Z,98595.63
2023-01-05T12:00:23.491Z,98599.28
2023-01-05T12:04:01.405Z,98606.47
2023-01-05T12:07:23.973Z,98602.94
2023-01-05T12:10:35.040Z,98592.41
2023-01-05T12:14:01.774Z,98610.03
2023-01-05T12:17:12.739Z,98603.78
2023-01-05T12:20:37.627Z,98603.66
2023-01-05T12:23:58.874Z,98600.94
2023-01-05T12:27:12.541Z,98597.19
2023-01-05T12:34:13.895Z,98609.69
2023-01-05T12:37:29.337Z,98604.50
2023-01-05T12:40:50.262Z,98608.06
2023-01-05T12:44:06.400Z,98616.97
2023-01-05T12:47:26.423Z,98609.97
2023-01-05T12:50:35.802Z,98620.47
2023-01-05T12:53:50.429Z,98615.25
2023-01-05T12:56:58.463Z,98617.69
2023-01-05T13:00:06.505Z,98625.53
2023-01-05T13:03:17.221Z,98628.19
2023-01-05T13:06:24.418Z,98623.72
2023-01-05T13:09:32.109Z,98629.19
2023-01-05T13:12:35.772Z,98630.31
2023-01-05T13:15:42.851Z,98637.50
2023-01-05T13:18:51.103Z,98637.56
2023-01-05T13:21:54.788Z,98635.91
2023-01-05T13:25:04.110Z,98643.88
2023-01-05T13:31:33.022Z,98650.13
2023-01-05T13:35:13.230Z,98650.97
2023-01-05T13:39:04.113Z,98659.00
2023-01-05T13:42:23.173Z,98666.09
2023-01-05T13:46:07.302Z,98665.34
2023-01-05T13:49:44.884Z,98668.94
2023-01-05T13:53:01.773Z,98670.84
2023-01-05T13:56:10.149Z,98680.78
2023-01-05T13:59:34.729Z,98671.25
2023-01-05T14:02:44.651Z,98690.81
2023-01-05T14:05:49.554Z,98699.03
2023-01-05T14:08:56.656Z,98691.16
2023-01-05T14:12:25.989Z,98705.53
2023-01-05T14:15:38.859Z,98706.69
2023-01-05T14:18:51.269Z,98714.72
2023-01-05T14:22:03.348Z,98714.09
2023-01-05T14:25:43.586Z,98710.69
2023-01-05T14:28:49.304Z,98713.47
2023-01-05T14:31:52.786Z,98725.88
2023-01-05T14:38:02.463Z,98723.19
2023-01-05T14:41:15.740Z,98720.56
2023-01-05T14:44:19.835Z,98722.38
2023-01-05T14:47:38.752Z,98717.97
2023-01-05T14:50:42.743Z,98740.84
2023-01-05T14:53:46.618Z,98739.91
2023-01-05T14:57:22.630Z,98741.53
2023-01-05T15:01:03.397Z,98741.53
2023-01-05T15:04:11.035Z,98743.31
2023-01-05T15:07:31.143Z,98751.16
2023-01-05T15:11:14.891Z,98752.09
2023-01-05T15:14:48.874Z,98752.03
2023-01-05T15:18:05.706Z,98758.09
2023-01-05T15:21:35.172Z,98752.91
2023-01-05T15:25:02.015Z,98759.84
2023-01-05T15:28:36.427Z,98765.16
2023-01-05T15:31:42.110Z,98758.09
2023-01-05T15:34:52.387Z,98766.88
2023-01-05T15:37:55.638Z,98756.25
2023-01-05T15:41:02.446Z,98759.78
2023-01-05T15:44:05.995Z,98763.31
2023-01-05T15:47:10.618Z,98758.06
2023-01-05T15:50:19.305Z,98765.09
2023-01-05T15:53:26.428Z,98770.41
2023-01-05T15:56:31.875Z,98765.97
2023-01-05T15:59:38.833Z,98760.81
2023-01-05T16:02:41.051Z,98769.59
2023-01-05T16:05:43.363Z,98774.78
2023-01-05T16:08:48.043Z,98774.00
2023-01-05T16:11:53.391Z,98775.72
2023-01-05T16:15:01.665Z,98778.38
2023-01-05T16:18:06.080Z,98772.19
2023-01-05T16:21:14.200Z,98782.75
2023-01-05T16:24:22.992Z,98775.66
2023-01-05T16:27:25.264Z,98789.84
2023-01-05T16:30:28.972Z,98783.56
2023-01-05T16:33:36.048Z,98797.72
2023-01-05T16:36:38.098Z,98787.84
2023-01-05T16:39:42.713Z,98789.63
2023-01-05T16:42:48.600Z,98794.94
2023-01-05T16:45:51.605Z,98787.03
2023-01-05T16:48:56.051Z,98792.34
2023-01-05T16:51:58.676Z,98798.47
2023-01-05T16:55:31.112Z,98799.34
2023-01-05T16:58:36.062Z,98801.94
2023-01-05T17:01:41.308Z,98808.13
2023-01-05T17:04:43.185Z,98803.78
2023-01-05T17:07:47.837Z,98803.72
2023-01-05T17:10:54.782Z,98809.03
2023-01-05T17:13:56.825Z,98804.59
2023-01-05T17:17:01.593Z,98800.16
2023-01-05T17:20:04.725Z,98801.91
2023-01-05T17:23:06.568Z,98811.69
2023-01-05T17:26:12.160Z,98808.13
2023-01-05T17:29:19.281Z,98812.56
2023-01-05T17:32:21.313Z,98826.78
2023-01-05T17:35:23.264Z,98823.31
2023-01-05T17:38:25.321Z,98822.44
2023-01-05T17:41:28.595Z,98833.94
2023-01-05T17:44:31.290Z,98830.41
2023-01-05T17:50:34.956Z,98823.31
2023-01-05T17:53:36.809Z,98823.31
2023-01-05T17:56:40.098Z,98824.28
2023-01-05T18:02:44.664Z,98817.25
2023-01-05T18:05:46.662Z,98817.25
2023-01-05T18:08:48.439Z,98813.66
2023-01-05T18:11:52.653Z,98818.13
2023-01-05T18:14:54.522Z,98809.28
2023-01-05T18:17:56.796Z,98809.31
2023-01-05T18:20:59.760Z,98814.66
2023-01-05T18:24:01.631Z,98806.81
2023-01-05T18:27:07.146Z,98812.13
2023-01-05T18:30:10.686Z,98822.84
2023-01-05T18:36:19.490Z,98812.63
2023-01-05T18:39:21.725Z,98813.69
2023-01-05T18:42:26.520Z,98815.53
2023-01-05T18:45:38.461Z,98808.47
2023-01-05T18:48:40.409Z,98805.88
2023-01-05T18:51:45.568Z,98806.84
2023-01-05T18:54:47.600Z,98805.13
2023-01-05T18:57:50.843Z,98815.81
2023-01-05T19:00:52.810Z,98807.84
2023-01-05T19:03:55.348Z,98815.00
2023-01-05T19:06:57.128Z,98811.69
2023-01-05T19:09:58.895Z,98818.75
2023-01-05T19:13:02.815Z,98808.88
2023-01-05T19:16:05.115Z,98814.19
2023-01-05T19:19:10.104Z,98804.41
2023-01-05T19:22:11.931Z,98799.00
2023-01-05T19:25:14.045Z,98801.59
2023-01-05T19:28:17.414Z,98795.34
2023-01-05T19:31:19.943Z,98799.59
2023-01-05T19:34:21.917Z,98798.72
2023-01-05T19:37:23.795Z,98795.25
2023-01-05T19:40:25.631Z,98783.69
2023-01-05T19:43:28.793Z,98786.34
2023-01-05T19:46:31.266Z,98787.47
2023-01-05T19:49:34.342Z,98782.03
2023-01-05T19:52:36.134Z,98787.13
2023-01-05T19:55:39.185Z,98795.94
2023-01-05T19:58:43.371Z,98794.16
2023-01-05T20:01:45.754Z,98795.09
2023-01-05T20:04:47.908Z,98789.81
2023-01-05T20:07:49.731Z,98787.22
2023-01-05T20:10:51.679Z,98791.63
2023-01-05T20:13:55.037Z,98781.81
2023-01-05T20:16:57.949Z,98784.41
2023-01-05T20:19:59.912Z,98774.88
2023-01-05T20:23:01.832Z,98774.97
2023-01-05T20:26:08.791Z,98782.09
2023-01-05T20:29:13.297Z,98783.88
2023-01-05T20:32:17.153Z,98777.63
2023-01-05T20:35:19.253Z,98782.06
2023-01-05T20:38:21.114Z,98784.81
2023-01-05T20:41:25.794Z,98783.88
2023-01-05T20:44:29.055Z,98785.59
2023-01-05T20:47:39.414Z,98783.88
2023-01-05T20:50:48.596Z,98785.50
2023-01-05T20:53:51.792Z,98782.03
2023-01-05T20:56:53.686Z,98781.09
2023-01-05T20:59:57.178Z,98776.72
2023-01-05T21:02:59.564Z,98779.31
2023-01-05T21:06:01.831Z,98770.47
2023-01-05T21:09:04.171Z,98775.78
2023-01-05T21:12:06.428Z,98776.78
2023-01-05T21:15:10.632Z,98776.75
2023-01-05T21:18:12.678Z,98769.66
2023-01-05T21:21:16.405Z,98763.47
2023-01-05T21:24:18.396Z,98767.06
2023-01-05T21:27:20.281Z,98772.31
2023-01-05T21:30:23.562Z,98759.97
2023-01-05T21:33:25.498Z,98769.91
2023-01-05T21:36:29.969Z,98769.16
2023-01-05T21:39:32.174Z,98765.78
2023-01-05T21:42:40.175Z,98762.31
2023-01-05T21:45:44.346Z,98758.00
2023-01-05T21:48:46.420Z,98761.59
2023-01-05T21:52:07.632Z,98752.84
2023-01-05T21:55:28.808Z,98758.97
2023-01-05T21:58:31.230Z,98750.16
2023-01-05T22:01:37.045Z,98752.03
2023-01-05T22:04:38.807Z,98745.75
2023-01-05T22:07:40.619Z,98739.59
2023-01-05T22:10:42.323Z,98736.06
2023-01-05T22:13:44.284Z,98733.41
2023-01-05T22:16:47.545Z,98721.00
2023-01-05T22:19:49.464Z,98731.63
2023-01-05T22:26:20.133Z,98728.97
2023-01-05T22:29:23.004Z,98737.75
2023-01-05T22:32:26.274Z,98737.69
2023-01-05T22:35:28.541Z,98727.06
2023-01-05T22:38:30.960Z,98724.34
2023-01-05T22:45:36.453Z,98725.03
2023-01-05T22:48:41.153Z,98729.38
2023-01-05T22:51:43.336Z,98718.75
2023-01-05T22:54:45.082Z,98719.59
2023-01-05T22:57:46.934Z,98711.72
2023-01-05T23:00:48.742Z,98721.38
2023-01-05T23:03:52.956Z,98718.72
2023-01-05T23:06:54.871Z,98706.31
2023-01-05T23:09:56.621Z,98711.66
2023-01-05T23:13:01.252Z,98708.06
2023-01-05T23:16:03.694Z,98699.19
2023-01-05T23:19:08.546Z,98697.34
2023-01-05T23:22:11.592Z,98690.28
2023-01-05T23:25:13.494Z,98684.06
2023-01-05T23:28:18.123Z,98680.53
2023-01-05T23:31:20.295Z,98681.41
2023-01-05T23:34:23.250Z,98692.03
2023-01-05T23:37:25.047Z,98684.97
2023-01-05T23:40:26.847Z,98677.94
2023-01-05T23:43:30.258Z,98677.06
2023-01-05T23:46:32.096Z,98673.50
2023-01-05T23:49:35.374Z,98677.00
2023-01-05T23:52:37.387Z,98665.56
2023-01-05T23:55:40.929Z,98661.19
2023-01-05T23:58:43.851Z,98664.72
